createdAt,value
2023-10-23T00:02:50.486Z,98705.02
2023-10-23T00:06:02.756Z,98699.98
2023-10-23T00:09:15.452Z,98705.44
2023-10-23T00:12:27.981Z,98709.91
2023-10-23T00:15:41.111Z,98715.52
2023-10-23T00:18:53.788Z,98712.86
2023-10-23T00:22:06.162Z,98712.02
2023-10-23T00:25:18.476Z,98712.86
2023-10-23T00:28:30.430Z,98713.83
2023-10-23T00:31:42.961Z,98716.78
2023-10-23T00:34:55.292Z,98715.94
2023-10-23T00:38:07.673Z,98724.05
2023-10-23T00:41:19.876Z,98723.36
2023-10-23T04:26:04.393Z,98796.23
2023-10-23T04:29:16.505Z,98791.22
2023-10-23T04:32:28.894Z,98790.76
2023-10-23T04:35:41.771Z,98799.80
2023-10-23T04:38:53.691Z,98798.80
2023-10-23T04:42:05.698Z,98798.09
2023-10-23T04:45:18.718Z,98805.51
2023-10-23T04:48:30.871Z,98803.81
2023-10-23T04:51:43.150Z,98805.75
2023-10-23T04:54:56.457Z,98811.33
2023-10-23T04:58:09.944Z,98815.77
2023-10-23T05:01:26.006Z,98818.99
2023-10-23T05:04:39.195Z,98831.14
2023-10-23T05:07:51.539Z,98840.75
2023-10-23T05:11:14.706Z,98840.37
2023-10-23T05:14:26.694Z,98849.59
2023-10-23T05:17:38.971Z,98852.56
2023-10-23T05:20:51.012Z,98854.41
2023-10-23T05:24:03.110Z,98854.17
2023-10-23T05:27:15.237Z,98821.69
2023-10-23T05:30:28.264Z,98864.77
2023-10-23T05:33:40.607Z,98868.13
2023-10-23T05:36:52.609Z,98869.86
2023-10-23T05:40:06.105Z,98869.91
2023-10-23T05:43:18.998Z,98878.56
2023-10-23T05:46:31.265Z,98876.62
2023-10-23T05:49:43.467Z,98881.92
2023-10-23T05:52:55.559Z,98886.09
2023-10-23T05:56:11.734Z,98885.00
2023-10-23T05:59:25.167Z,98883.52
2023-10-23T06:02:37.313Z,98895.00
2023-10-23T06:05:50.110Z,98895.27
2023-10-23T06:09:02.286Z,98892.80
2023-10-23T06:12:16.228Z,98903.43
2023-10-23T06:15:28.423Z,98906.67
2023-10-23T06:18:42.400Z,98901.65
2023-10-23T06:21:54.967Z,98910.33
2023-10-23T06:25:07.260Z,98911.34
2023-10-23T06:28:19.407Z,98908.88
2023-10-23T06:31:31.598Z,98908.33
2023-10-23T06:34:43.771Z,98905.13
2023-10-23T06:37:55.818Z,98903.45
2023-10-23T06:41:12.538Z,98908.33
2023-10-23T06:44:23.351Z,98910.98
2023-10-23T06:47:35.422Z,98908.48
2023-10-23T06:50:53.368Z,98908.06
2023-10-23T06:54:05.674Z,98909.60
2023-10-23T06:57:17.899Z,98911.55
2023-10-23T07:00:30.233Z,98916.86
2023-10-23T07:03:42.993Z,98917.71
2023-10-23T07:06:55.580Z,98912.83
2023-10-23T07:10:08.296Z,98913.77
2023-10-23T07:13:23.073Z,98917.80
2023-10-23T07:16:34.813Z,98919.63
2023-10-23T07:19:47.529Z,98919.28
2023-10-23T07:22:59.903Z,98922.06
2023-10-23T07:26:16.220Z,98916.38
2023-10-23T07:29:28.757Z,98913.75
2023-10-23T07:32:41.167Z,98912.15
2023-10-23T07:35:53.859Z,98902.13
2023-10-23T07:39:06.330Z,98909.67
2023-10-23T07:42:18.550Z,98918.03
2023-10-23T07:45:30.595Z,98925.74
2023-10-23T07:48:43.887Z,98926.19
2023-10-23T07:51:56.180Z,98920.41
2023-10-23T07:55:09.916Z,98920.34
2023-10-23T07:58:23.517Z,98919.14
2023-10-23T08:01:35.665Z,98913.20
2023-10-23T08:04:49.256Z,98909.30
2023-10-23T08:08:01.949Z,98909.78
2023-10-23T08:11:18.001Z,98923.77
2023-10-23T08:14:30.357Z,98926.70
2023-10-23T08:17:43.049Z,98919.91
2023-10-23T08:20:55.536Z,98915.17
2023-10-23T08:24:07.862Z,98903.67
2023-10-23T08:27:19.959Z,98914.70
2023-10-23T08:30:32.019Z,98918.56
2023-10-23T08:33:44.243Z,98913.18
2023-10-23T08:36:56.441Z,98910.98
2023-10-23T08:40:09.106Z,98901.59
2023-10-23T08:43:21.293Z,98910.56
2023-10-23T08:46:36.883Z,98905.63
2023-10-23T08:49:51.019Z,98892.81
2023-10-23T08:53:09.393Z,98903.12
2023-10-23T08:56:21.752Z,98909.16
2023-10-23T08:59:35.335Z,98920.23
2023-10-23T09:02:51.818Z,98929.93
2023-10-23T09:06:04.770Z,98923.89
2023-10-23T09:09:17.139Z,98926.20
2023-10-23T09:12:41.036Z,98936.31
2023-10-23T09:15:59.190Z,98943.06
2023-10-23T09:19:11.815Z,98943.22
2023-10-23T09:22:24.289Z,98941.91
2023-10-23T09:25:36.651Z,98935.03
2023-10-23T09:28:48.724Z,98944.67
2023-10-23T09:32:04.261Z,98943.56
2023-10-23T09:35:17.728Z,98943.30
2023-10-23T09:38:51.296Z,98941.22
2023-10-23T09:45:20.680Z,98944.61
2023-10-23T09:48:35.181Z,98937.64
2023-10-23T09:51:54.412Z,98933.61
2023-10-23T09:55:11.038Z,98925.58
2023-10-23T09:58:24.872Z,98920.75
2023-10-23T10:01:44.281Z,98920.13
2023-10-23T10:05:05.730Z,98910.69
2023-10-23T10:08:22.643Z,98908.02
2023-10-23T10:11:35.807Z,98897.72
2023-10-23T10:14:49.850Z,98892.91
2023-10-23T10:18:02.057Z,98890.80
2023-10-23T10:21:18.590Z,98890.53
2023-10-23T10:24:31.531Z,98899.03
2023-10-23T10:27:44.352Z,98895.02
2023-10-23T10:30:58.164Z,98887.22
2023-10-23T10:34:26.471Z,98878.50
2023-10-23T10:37:29.021Z,98887.17
2023-10-23T10:41:30.263Z,98868.73
2023-10-23T10:45:20.806Z,98867.88
2023-10-23T10:49:12.189Z,98863.20
2023-10-23T10:52:36.906Z,98864.23
2023-10-23T10:55:52.011Z,98859.25
2023-10-23T10:59:08.570Z,98855.11
2023-10-23T11:02:20.672Z,98855.52
2023-10-23T11:05:33.384Z,98855.26
2023-10-23T11:08:46.091Z,98854.63
2023-10-23T11:11:58.109Z,98845.91
2023-10-23T11:15:11.675Z,98847.20
2023-10-23T11:18:26.733Z,98843.34
2023-10-23T11:21:41.780Z,98836.28
2023-10-23T11:24:54.064Z,98830.62
2023-10-23T11:28:08.426Z,98831.73
2023-10-23T11:31:20.714Z,98833.75
2023-10-23T11:34:33.047Z,98823.78
2023-10-23T11:37:49.551Z,98825.45
2023-10-23T11:40:59.913Z,98823.14
2023-10-23T11:44:12.860Z,98835.31
2023-10-23T11:47:24.960Z,98837.63
2023-10-23T11:50:39.070Z,98836.00
2023-10-23T11:53:53.134Z,98838.27
2023-10-23T11:57:05.753Z,98841.69
2023-10-23T12:00:22.373Z,98851.45
2023-10-23T12:03:35.072Z,98856.13
2023-10-23T12:06:48.507Z,98848.96
2023-10-23T12:10:00.800Z,98840.41
2023-10-23T12:13:13.160Z,98840.47
2023-10-23T12:16:25.725Z,98842.69
2023-10-23T12:19:38.152Z,98840.03
2023-10-23T12:22:53.373Z,98844.72
2023-10-23T12:26:05.684Z,98843.79
2023-10-23T12:29:18.227Z,98847.81
2023-10-23T12:33:16.547Z,98849.79
2023-10-23T12:35:45.324Z,98842.16
2023-10-23T12:38:57.490Z,98839.77
2023-10-23T12:42:10.237Z,98835.59
2023-10-23T12:45:22.677Z,98839.13
2023-10-23T12:48:34.898Z,98834.84
2023-10-23T12:51:47.227Z,98835.16
2023-10-23T12:55:00.416Z,98838.50
2023-10-23T12:58:13.083Z,98822.38
2023-10-23T13:01:25.309Z,98821.83
2023-10-23T13:04:38.131Z,98813.86
2023-10-23T13:07:50.760Z,98816.64
2023-10-23T13:11:03.173Z,98813.42
2023-10-23T13:14:15.392Z,98809.19
2023-10-23T13:17:27.813Z,98807.34
2023-10-23T13:21:29.057Z,98802.42
2023-10-23T13:23:54.323Z,98798.80
2023-10-23T13:27:06.506Z,98792.67
2023-10-23T13:30:19.847Z,98798.43
2023-10-23T13:33:32.024Z,98798.50
2023-10-23T13:36:44.301Z,98778.77
2023-10-23T13:39:56.589Z,98789.64
2023-10-23T13:43:09.027Z,98792.33
2023-10-23T13:46:21.268Z,98785.54
2023-10-23T13:49:33.531Z,98791.37
2023-10-23T13:52:46.911Z,98788.88
2023-10-23T13:55:59.826Z,98790.72
2023-10-23T13:59:11.996Z,98783.86
2023-10-23T14:02:24.312Z,98777.45
2023-10-23T14:05:38.931Z,98775.77
2023-10-23T14:12:51.151Z,98780.11
2023-10-23T14:16:05.885Z,98770.64
2023-10-23T14:19:33.592Z,98779.77
2023-10-23T14:22:33.655Z,98779.92
2023-10-23T14:25:45.931Z,98773.56
2023-10-23T14:28:58.100Z,98746.51
2023-10-23T14:32:10.800Z,98774.62
2023-10-23T14:38:38.439Z,98773.12
2023-10-23T14:41:50.560Z,98779.50
2023-10-23T14:45:05.461Z,98787.58
2023-10-23T14:48:18.600Z,98786.59
2023-10-23T14:51:30.755Z,98786.30
2023-10-23T14:54:42.851Z,98778.13
2023-10-23T14:57:55.133Z,98779.84
2023-10-23T15:01:09.619Z,98776.03
2023-10-23T15:08:10.960Z,98775.08
2023-10-23T15:11:25.856Z,98785.14
2023-10-23T15:14:38.240Z,98777.80
2023-10-23T15:52:46.192Z,98807.95
2023-10-23T15:55:59.208Z,98802.76
2023-10-23T16:02:16.526Z,98806.03
2023-10-23T16:13:37.719Z,98808.08
2023-10-23T16:16:42.931Z,98802.23
2023-10-23T16:19:56.303Z,98804.17
2023-10-23T16:23:09.345Z,98793.97
2023-10-23T16:26:21.483Z,98795.71
2023-10-23T16:29:33.730Z,98795.36
2023-10-23T16:32:53.796Z,98792.97
2023-10-23T16:36:13.952Z,98790.30
2023-10-23T16:39:26.801Z,98788.61
2023-10-23T16:42:38.989Z,98789.40
2023-10-23T16:45:51.370Z,98794.84
2023-10-23T16:49:03.613Z,98789.44
2023-10-23T16:52:16.204Z,98782.23
2023-10-23T16:55:29.064Z,98787.33
2023-10-23T16:58:41.542Z,98788.23
2023-10-23T17:01:53.983Z,98794.17
2023-10-23T17:05:08.691Z,98790.62
2023-10-23T17:08:22.481Z,98784.84
2023-10-23T17:11:35.114Z,98778.88
2023-10-23T17:14:48.378Z,98778.83
2023-10-23T17:18:00.762Z,98782.39
2023-10-23T17:21:14.672Z,98784.20
2023-10-23T17:24:26.913Z,98791.80
2023-10-23T17:27:39.117Z,98781.69
2023-10-23T17:30:53.574Z,98790.64
2023-10-23T17:34:07.607Z,98794.98
2023-10-23T17:37:19.972Z,98792.86
2023-10-23T17:40:32.902Z,98791.33
2023-10-23T17:43:46.642Z,98794.98
2023-10-23T17:47:00.219Z,98795.27
2023-10-23T17:50:15.099Z,98798.56
2023-10-23T17:53:27.323Z,98805.78
2023-10-23T17:56:41.674Z,98803.58
2023-10-23T17:59:54.108Z,98799.77
2023-10-23T18:03:07.650Z,98802.70
2023-10-23T18:06:20.565Z,98807.48
2023-10-23T18:09:32.793Z,98803.28
2023-10-23T18:12:44.913Z,98809.28
2023-10-23T18:15:57.217Z,98803.01
2023-10-23T18:19:13.711Z,98798.96
2023-10-23T18:22:26.086Z,98798.96
2023-10-23T18:25:38.600Z,98800.54
2023-10-23T18:28:51.632Z,98796.03
2023-10-23T18:32:06.443Z,98795.50
2023-10-23T18:35:19.090Z,98794.53
2023-10-23T18:38:31.511Z,98790.36
2023-10-23T18:41:43.606Z,98791.06
2023-10-23T18:44:56.439Z,98785.05
2023-10-23T18:48:09.988Z,98781.87
2023-10-23T18:51:22.698Z,98778.11
2023-10-23T18:54:36.938Z,98773.92
2023-10-23T18:57:49.203Z,98770.97
2023-10-23T19:01:03.619Z,98772.81
2023-10-23T19:04:16.296Z,98773.23
2023-10-23T19:07:28.754Z,98773.92
2023-10-23T19:10:42.553Z,98770.03
2023-10-23T19:13:54.953Z,98764.59
2023-10-23T19:17:07.825Z,98764.30
2023-10-23T19:20:20.841Z,98767.25
2023-10-23T19:23:33.729Z,98766.23
2023-10-23T19:26:47.120Z,98763.84
2023-10-23T19:30:02.743Z,98770.99
2023-10-23T19:33:16.879Z,98765.95
2023-10-23T19:36:34.837Z,98759.80
2023-10-23T19:39:49.273Z,98755.08
2023-10-23T19:43:06.455Z,98763.45
2023-10-23T19:46:20.887Z,98770.70
2023-10-23T19:49:35.592Z,98764.26
2023-10-23T19:52:51.041Z,98765.11
2023-10-23T19:56:07.163Z,98763.14
2023-10-23T19:59:19.300Z,98763.55
2023-10-23T20:02:31.947Z,98762.83
2023-10-23T20:05:44.707Z,98759.08
2023-10-23T20:08:57.142Z,98756.43
2023-10-23T20:12:09.806Z,98765.48
2023-10-23T20:15:23.301Z,98762.69
2023-10-23T20:18:35.799Z,98764.49
2023-10-23T20:21:48.339Z,98751.67
2023-10-23T20:25:01.670Z,98760.02
2023-10-23T20:28:13.965Z,98750.25
2023-10-23T20:31:27.370Z,98765.56
2023-10-23T20:34:39.786Z,98772.10
2023-10-23T20:37:52.077Z,98769.73
2023-10-23T20:41:05.147Z,98770.27
2023-10-23T20:44:17.401Z,98773.63
2023-10-23T20:47:29.694Z,98769.71
2023-10-23T20:50:44.281Z,98765.90
2023-10-23T20:53:56.516Z,98764.95
2023-10-23T20:57:09.765Z,98754.74
2023-10-23T21:00:23.753Z,98763.57
2023-10-23T21:03:58.392Z,98759.51
2023-10-23T21:07:11.117Z,98757.00
2023-10-23T21:10:23.569Z,98762.82
2023-10-23T21:13:35.744Z,98758.63
2023-10-23T21:16:47.837Z,98766.38
2023-10-23T21:20:00.193Z,98758.90
2023-10-23T21:23:12.274Z,98748.27
2023-10-23T21:26:25.241Z,98743.59
2023-10-23T21:29:37.506Z,98742.26
2023-10-23T21:32:50.168Z,98757.30
2023-10-23T21:36:02.672Z,98755.49
2023-10-23T21:39:14.973Z,98749.35
2023-10-23T21:42:27.095Z,98763.81
2023-10-23T21:45:39.559Z,98760.45
2023-10-23T21:48:51.437Z,98744.30
2023-10-23T21:52:05.907Z,98740.05
2023-10-23T21:55:23.654Z,98730.31
2023-10-23T21:59:03.370Z,98734.19
2023-10-23T22:01:54.378Z,98728.89
2023-10-23T22:39:27.796Z,98698.89
2023-10-23T22:42:40.219Z,98691.27
2023-10-23T22:46:02.213Z,98686.69
2023-10-23T22:49:07.515Z,98687.44
2023-10-23T22:52:21.747Z,98686.55
2023-10-23T22:55:35.822Z,98689.51
2023-10-23T22:58:49.983Z,98690.86
2023-10-23T23:02:03.843Z,98686.08
2023-10-23T23:05:19.151Z,98692.45
2023-10-23T23:08:33.878Z,98689.57
2023-10-23T23:11:57.373Z,98693.50
2023-10-23T23:46:41.191Z,98579.27
2023-10-23T23:53:54.603Z,98669.16
2023-10-23T23:57:23.478Z,98664.10
